createdAt,value
2017-03-27T00:02:02.757Z,7.4
2017-03-27T00:07:03.479Z,7.4
2017-03-27T00:12:03.491Z,7.3
2017-03-27T00:17:03.258Z,7.2
2017-03-27T00:22:02.720Z,7.2
2017-03-27T00:27:03.576Z,7.1
2017-03-27T00:32:03.048Z,7.1
2017-03-27T00:37:02.875Z,7.0
2017-03-27T00:42:03.167Z,6.9
2017-03-27T00:47:02.728Z,6.8
2017-03-27T00:52:03.184Z,6.7
2017-03-27T00:57:02.695Z,6.6
2017-03-27T01:02:03.169Z,6.6
2017-03-27T01:07:03.095Z,6.5
2017-03-27T01:12:03.647Z,6.4
2017-03-27T01:17:03.157Z,6.3
2017-03-27T01:22:03.323Z,6.0
2017-03-27T01:27:02.881Z,5.9
2017-03-27T01:32:03.220Z,5.8
2017-03-27T01:37:03.244Z,5.7
2017-03-27T01:42:02.520Z,5.7
2017-03-27T01:47:03.222Z,5.6
2017-03-27T01:52:02.932Z,5.6
2017-03-27T01:57:03.845Z,5.4
2017-03-27T02:02:03.090Z,5.5
2017-03-27T02:07:03.444Z,5.5
2017-03-27T02:12:03.155Z,5.5
2017-03-27T02:17:03.741Z,5.4
2017-03-27T02:22:03.478Z,5.2
2017-03-27T02:27:02.897Z,5.2
2017-03-27T02:32:03.336Z,5.2
2017-03-27T02:37:02.986Z,5.1
2017-03-27T02:42:03.349Z,5.0
2017-03-27T02:47:03.614Z,5.0
2017-03-27T02:52:02.962Z,5.0
2017-03-27T02:57:03.163Z,5.0
2017-03-27T03:02:03.371Z,4.9
2017-03-27T03:07:02.858Z,4.8
2017-03-27T03:12:03.232Z,4.9
2017-03-27T03:17:03.541Z,4.8
2017-03-27T03:22:02.930Z,4.5
2017-03-27T03:27:03.153Z,4.4
2017-03-27T03:32:03.657Z,4.4
2017-03-27T03:37:02.907Z,4.3
2017-03-27T03:42:03.166Z,4.4
2017-03-27T03:47:03.293Z,4.4
2017-03-27T03:52:03.497Z,4.3
2017-03-27T03:57:02.718Z,4.3
2017-03-27T04:02:03.031Z,4.3
2017-03-27T04:07:03.222Z,4.2
2017-03-27T04:12:03.502Z,4.1
2017-03-27T04:17:03.052Z,4.1
2017-03-27T04:22:03.238Z,4.0
2017-03-27T04:27:02.782Z,4.1
2017-03-27T04:32:03.507Z,4.1
2017-03-27T04:37:03.048Z,4.1
2017-03-27T04:42:03.396Z,4.0
2017-03-27T04:47:15.586Z,3.4
2017-03-27T04:52:02.609Z,3.4
2017-03-27T04:57:02.704Z,3.5
2017-03-27T05:02:12.893Z,3.6
2017-03-27T05:07:03.326Z,3.5
2017-03-27T05:12:02.912Z,3.6
2017-03-27T05:17:13.410Z,3.6
2017-03-27T05:22:02.964Z,3.6
2017-03-27T05:27:02.892Z,3.5
2017-03-27T05:32:13.327Z,3.5
2017-03-27T05:37:02.803Z,3.5
2017-03-27T05:42:03.196Z,3.4
2017-03-27T05:47:17.152Z,3.5
2017-03-27T05:52:03.340Z,3.5
2017-03-27T05:57:02.902Z,3.6
2017-03-27T06:02:12.970Z,3.7
2017-03-27T06:07:03.147Z,3.7
2017-03-27T06:12:03.485Z,3.9
2017-03-27T06:17:18.283Z,4.0
2017-03-27T06:22:03.596Z,4.2
2017-03-27T06:27:02.824Z,4.4
2017-03-27T06:32:13.202Z,4.6
2017-03-27T06:37:03.099Z,4.8
2017-03-27T06:42:03.288Z,5.3
2017-03-27T06:47:18.329Z,5.5
2017-03-27T06:52:03.458Z,5.5
2017-03-27T06:57:03.559Z,5.8
2017-03-27T07:02:13.494Z,6.1
2017-03-27T07:07:03.289Z,6.5
2017-03-27T07:12:03.589Z,6.5
2017-03-27T07:17:13.407Z,6.7
2017-03-27T07:22:03.266Z,6.7
2017-03-27T07:27:03.515Z,7.5
2017-03-27T07:32:13.094Z,7.8
2017-03-27T07:37:03.280Z,8.1
2017-03-27T07:42:03.470Z,8.1
2017-03-27T07:47:17.410Z,8.4
2017-03-27T07:52:02.938Z,9.1
2017-03-27T07:57:03.183Z,9.1
2017-03-27T08:02:16.949Z,9.7
2017-03-27T08:07:03.241Z,10.0
2017-03-27T08:12:03.397Z,10.0
2017-03-27T08:17:13.190Z,10.4
2017-03-27T08:22:03.315Z,11.1
2017-03-27T08:27:02.753Z,11.1
2017-03-27T08:32:08.555Z,12.0
2017-03-27T08:37:02.922Z,11.9
2017-03-27T08:42:02.601Z,12.4
2017-03-27T08:47:13.580Z,12.8
2017-03-27T08:52:02.596Z,13.6
2017-03-27T08:57:03.251Z,13.8
2017-03-27T09:02:12.971Z,14.1
2017-03-27T09:07:03.062Z,14.6
2017-03-27T09:12:02.839Z,14.9
2017-03-27T09:17:13.134Z,14.8
2017-03-27T09:22:03.452Z,15.1
2017-03-27T09:27:03.717Z,15.7
2017-03-27T09:32:04.942Z,15.7
2017-03-27T09:37:03.598Z,16.4
2017-03-27T09:42:03.523Z,16.9
2017-03-27T09:47:13.669Z,17.2
2017-03-27T09:52:02.863Z,17.5
2017-03-27T09:57:02.698Z,17.4
2017-03-27T10:02:12.791Z,17.7
2017-03-27T10:07:03.344Z,18.4
2017-03-27T10:12:03.041Z,18.3
2017-03-27T10:17:09.282Z,18.6
2017-03-27T10:22:02.750Z,19.0
2017-03-27T10:27:03.536Z,19.0
2017-03-27T10:32:12.370Z,19.0
2017-03-27T10:37:02.933Z,19.0
2017-03-27T10:42:02.919Z,19.1
2017-03-27T10:47:16.283Z,19.5
2017-03-27T10:52:02.714Z,19.8
2017-03-27T10:57:03.316Z,19.8
2017-03-27T11:02:12.902Z,20.2
2017-03-27T11:07:03.430Z,20.2
2017-03-27T11:12:03.169Z,20.6
2017-03-27T11:17:12.704Z,20.9
2017-03-27T11:22:03.159Z,21.5
2017-03-27T11:27:03.668Z,21.8
2017-03-27T11:32:12.855Z,21.7
2017-03-27T11:37:02.803Z,22.2
2017-03-27T11:42:03.457Z,22.2
2017-03-27T11:47:12.523Z,22.7
2017-03-27T11:52:03.076Z,22.7
2017-03-27T11:57:02.951Z,22.9
2017-03-27T12:02:14.027Z,23.2
2017-03-27T12:07:02.868Z,23.2
2017-03-27T12:12:02.874Z,23.6
2017-03-27T12:17:13.528Z,23.6
2017-03-27T12:22:03.405Z,23.7
2017-03-27T12:27:03.324Z,24.0
2017-03-27T12:32:12.942Z,24.0
2017-03-27T12:37:03.355Z,24.0
2017-03-27T12:42:03.163Z,23.9
2017-03-27T12:47:13.390Z,24.2
2017-03-27T12:52:03.002Z,24.5
2017-03-27T12:57:03.471Z,24.9
2017-03-27T13:02:13.265Z,25.3
2017-03-27T13:07:03.132Z,25.3
2017-03-27T13:12:03.676Z,25.6
2017-03-27T13:17:13.375Z,25.9
2017-03-27T13:22:03.092Z,26.2
2017-03-27T13:27:02.777Z,26.2
2017-03-27T13:32:13.583Z,26.2
2017-03-27T13:37:03.665Z,26.4
2017-03-27T13:42:02.743Z,26.7
2017-03-27T13:47:18.408Z,26.8
2017-03-27T13:52:03.120Z,27.2
2017-03-27T13:57:02.888Z,27.1
2017-03-27T14:02:12.415Z,27.9
2017-03-27T14:07:03.185Z,27.9
2017-03-27T14:12:03.292Z,28.5
2017-03-27T14:17:13.484Z,28.5
2017-03-27T14:22:03.485Z,29.0
2017-03-27T14:27:03.383Z,29.3
2017-03-27T14:32:13.144Z,31.1
2017-03-27T14:37:03.558Z,31.0
2017-03-27T14:42:02.628Z,34.7
2017-03-27T14:47:13.165Z,34.6
2017-03-27T14:52:02.637Z,36.6
2017-03-27T14:57:02.995Z,38.3
2017-03-27T15:02:13.139Z,41.6
2017-03-27T15:07:02.863Z,42.0
2017-03-27T15:12:03.071Z,42.1
2017-03-27T15:17:13.460Z,43.0
2017-03-27T15:22:03.161Z,44.5
2017-03-27T15:27:03.073Z,44.5
2017-03-27T15:32:13.507Z,45.2
2017-03-27T15:37:03.126Z,45.9
2017-03-27T15:42:02.749Z,46.5
2017-03-27T15:47:13.437Z,47.3
2017-03-27T15:52:02.961Z,47.3
2017-03-27T15:57:02.705Z,47.8
2017-03-27T16:02:13.866Z,48.4
2017-03-27T16:07:03.206Z,48.5
2017-03-27T16:12:03.042Z,48.3
2017-03-27T16:17:12.634Z,48.3
2017-03-27T16:22:03.060Z,48.3
2017-03-27T16:27:03.459Z,48.2
2017-03-27T16:32:13.385Z,47.3
2017-03-27T16:37:03.286Z,47.3
2017-03-27T16:42:02.666Z,47.1
2017-03-27T16:47:13.619Z,46.8
2017-03-27T16:52:02.949Z,46.7
2017-03-27T16:57:03.306Z,46.2
2017-03-27T17:02:14.015Z,44.8
2017-03-27T17:07:02.991Z,44.8
2017-03-27T17:12:03.480Z,43.7
2017-03-27T17:17:15.953Z,42.5
2017-03-27T17:22:03.198Z,41.1
2017-03-27T17:27:03.531Z,39.6
2017-03-27T17:32:14.002Z,38.0
2017-03-27T17:37:03.485Z,36.1
2017-03-27T17:42:03.226Z,30.0
2017-03-27T17:47:16.848Z,29.8
2017-03-27T17:52:03.503Z,25.2
2017-03-27T17:57:03.529Z,25.2
2017-03-27T18:02:13.414Z,23.8
2017-03-27T18:07:03.398Z,22.6
2017-03-27T18:12:02.970Z,20.6
2017-03-27T18:22:03.065Z,19.2
2017-03-27T18:27:02.917Z,19.1
2017-03-27T18:32:11.245Z,17.8
2017-03-27T18:37:03.205Z,17.7
2017-03-27T18:42:03.356Z,16.7
2017-03-27T18:47:03.877Z,16.4
2017-03-27T18:52:02.723Z,16.3
2017-03-27T18:57:02.766Z,15.9
2017-03-27T19:02:03.630Z,15.2
2017-03-27T19:07:03.471Z,14.9
2017-03-27T19:12:03.471Z,14.7
2017-03-27T19:17:03.292Z,14.4
2017-03-27T19:22:02.966Z,14.3
2017-03-27T19:27:03.071Z,14.2
2017-03-27T19:32:03.083Z,13.8
2017-03-27T19:37:03.191Z,13.8
2017-03-27T19:42:03.407Z,13.6
2017-03-27T19:47:03.295Z,13.1
2017-03-27T19:52:03.320Z,13.0
2017-03-27T19:57:02.880Z,12.9
2017-03-27T20:02:03.351Z,12.4
2017-03-27T20:07:02.858Z,12.2
2017-03-27T20:12:02.835Z,11.9
2017-03-27T20:17:04.035Z,11.8
2017-03-27T20:22:02.810Z,11.7
2017-03-27T20:27:02.670Z,11.5
2017-03-27T20:32:03.210Z,11.4
2017-03-27T20:37:02.919Z,11.2
2017-03-27T20:42:02.906Z,10.9
2017-03-27T20:47:04.024Z,10.8
2017-03-27T20:52:03.202Z,10.8
2017-03-27T20:57:03.566Z,10.7
2017-03-27T21:02:03.775Z,10.4
2017-03-27T21:07:03.093Z,10.4
2017-03-27T21:12:02.762Z,10.3
2017-03-27T21:17:04.040Z,10.2
2017-03-27T21:22:02.747Z,10.1
2017-03-27T21:27:03.606Z,10.0
2017-03-27T21:32:04.327Z,9.8
2017-03-27T21:37:02.886Z,9.7
2017-03-27T21:42:03.294Z,9.3
2017-03-27T21:47:03.385Z,9.3
2017-03-27T21:52:02.864Z,9.2
2017-03-27T21:57:02.811Z,9.1
2017-03-27T22:02:03.062Z,9.0
2017-03-27T22:07:02.798Z,8.8
2017-03-27T22:12:03.514Z,8.8
2017-03-27T22:22:03.665Z,8.5
2017-03-27T22:27:03.488Z,8.4
2017-03-27T22:32:03.546Z,8.2
2017-03-27T22:37:02.739Z,8.1
2017-03-27T22:42:02.809Z,8.2
2017-03-27T22:47:02.940Z,8.2
2017-03-27T22:52:03.103Z,8.1
2017-03-27T22:57:03.202Z,8.0
2017-03-27T23:02:03.508Z,7.6
2017-03-27T23:07:03.299Z,7.6
2017-03-27T23:12:03.648Z,7.6
2017-03-27T23:17:03.764Z,7.5
2017-03-27T23:22:03.085Z,7.4
2017-03-27T23:27:02.913Z,7.3
2017-03-27T23:32:03.643Z,7.2
2017-03-27T23:37:02.949Z,7.1
2017-03-27T23:42:03.365Z,7.1
2017-03-27T23:47:02.819Z,7.0
2017-03-27T23:52:03.261Z,7.0
2017-03-27T23:57:02.755Z,6.8
